Time;durP1;ratioP1;P1;durP2;ratioP2;P2;SDS_P1;SDS_P2;PMS_P1;PMS_P2;Temp;Humidity;BMP_temperature;BMP_pressure;BME280_temperature;BME280_humidity;BME280_pressure;Samples;Min_cycle;Max_cycle;Signal;HPM_P1;HPM_P2
2021/05/22 00:02:16;;;;;;;;;;;13.60;82.30;;;;;;5068204;28;20021;-68
2021/05/22 00:04:41;;;;;;;10.05;1.63;;;13.60;82.00;;;;;;5067532;28;20003;-68
2021/05/22 00:07:07;;;;;;;;;;;13.60;82.40;;;;;;5067784;28;20130;-69
2021/05/22 00:09:32;;;;;;;4.60;1.17;;;13.50;82.40;;;;;;5067691;28;19967;-68
2021/05/22 00:11:58;;;;;;;;;;;13.40;83.30;;;;;;5067703;28;20070;-69
2021/05/22 00:14:23;;;;;;;6.65;1.52;;;13.40;82.80;;;;;;5066591;28;19920;-67
2021/05/22 00:16:49;;;;;;;;;;;13.40;82.50;;;;;;5066979;28;20150;-68
2021/05/22 00:19:17;;;;;;;3.72;1.45;;;13.30;82.70;;;;;;5066177;28;20029;-69
2021/05/22 00:21:42;;;;;;;2.58;1.40;;;13.30;82.70;;;;;;5066882;28;20094;-67
2021/05/22 00:24:08;;;;;;;;;;;13.20;83.10;;;;;;5067729;28;20029;-69
2021/05/22 00:26:34;;;;;;;6.13;1.27;;;13.10;83.50;;;;;;5066739;28;20308;-69
2021/05/22 00:28:59;;;;;;;;;;;13.10;83.80;;;;;;5067368;28;20036;-68
2021/05/22 00:31:25;;;;;;;5.35;1.33;;;13.00;83.70;;;;;;5067292;28;19933;-68
2021/05/22 00:33:50;;;;;;;;;;;13.00;83.90;;;;;;5067159;28;20413;-67
2021/05/22 00:36:16;;;;;;;9.23;1.90;;;12.90;84.10;;;;;;5067107;28;20365;-68
2021/05/22 00:38:41;;;;;;;;;;;12.90;84.20;;;;;;5067494;28;20028;-68
2021/05/22 00:41:07;;;;;;;3.70;1.95;;;12.80;84.90;;;;;;5066592;28;20003;-68
2021/05/22 00:43:32;;;;;;;;;;;12.80;84.80;;;;;;5066910;28;20408;-68
2021/05/22 00:45:58;;;;;;;3.20;1.40;;;12.70;85.70;;;;;;5066388;28;20334;-68
2021/05/22 00:48:24;;;;;;;;;;;12.70;85.60;;;;;;5067356;28;20055;-69
2021/05/22 00:50:52;;;;;;;5.35;1.50;;;12.60;86.00;;;;;;5066570;28;20424;-66
2021/05/22 00:53:19;;;;;;;5.18;2.42;;;12.60;85.30;;;;;;5066975;28;20052;-67
2021/05/22 00:55:45;;;;;;;5.75;2.72;;;12.60;85.90;;;;;;5066790;28;20036;-68
2021/05/22 00:58:11;;;;;;;3.88;1.83;;;12.60;85.50;;;;;;5066399;28;20242;-68
2021/05/22 01:00:47;;;;;;;;;;;12.60;85.30;;;;;;5066270;28;20127;-69
2021/05/22 01:03:31;;;;;;;3.33;1.50;;;12.60;85.80;;;;;;5066771;28;19953;-68
2021/05/22 01:06:18;;;;;;;3.08;1.65;;;12.60;86.00;;;;;;5065332;28;20039;-68
2021/05/22 01:08:46;;;;;;;3.30;1.70;;;12.60;85.10;;;;;;5066626;28;20043;-68
2021/05/22 01:11:51;;;;;;;3.63;1.95;;;12.60;84.80;;;;;;5066561;28;20052;-68
2021/05/22 01:14:32;;;;;;;3.08;1.85;;;12.60;85.30;;;;;;5066105;28;20082;-67
2021/05/22 01:16:59;;;;;;;3.70;1.95;;;12.60;85.40;;;;;;5066833;28;20340;-68
2021/05/22 01:19:41;;;;;;;6.35;1.67;;;12.60;84.90;;;;;;5066011;28;20595;-68
2021/05/22 01:22:08;;;;;;;3.33;1.70;;;12.50;85.20;;;;;;5064898;28;20040;-68
2021/05/22 01:24:44;;;;;;;2.70;1.50;;;12.50;85.40;;;;;;5066142;28;20040;-67
2021/05/22 01:27:10;;;;;;;4.43;2.15;;;12.50;85.20;;;;;;5065879;28;20032;-68
2021/05/22 01:29:36;;;;;;;3.33;1.90;;;12.50;84.70;;;;;;5065554;28;20017;-68
2021/05/22 01:32:02;;;;;;;;;;;12.50;85.40;;;;;;5066581;28;20036;-66
2021/05/22 01:34:28;;;;;;;3.67;1.92;;;12.40;85.30;;;;;;5065057;28;20449;-68
2021/05/22 01:36:54;;;;;;;;;;;12.40;85.80;;;;;;5066577;28;20527;-69
2021/05/22 01:39:19;;;;;;;3.67;1.70;;;12.40;85.40;;;;;;5065130;28;19908;-68
2021/05/22 01:41:45;;;;;;;;;;;12.40;85.40;;;;;;5066476;28;20728;-69
2021/05/22 01:44:12;;;;;;;5.32;1.80;;;12.40;85.60;;;;;;5065645;28;19912;-68
2021/05/22 01:46:41;;;;;;;4.68;1.45;;;12.40;85.50;;;;;;5065943;28;20118;-68
2021/05/22 01:49:07;;;;;;;7.15;1.95;;;12.40;85.80;;;;;;5066166;28;20077;-68
2021/05/22 01:51:35;;;;;;;3.20;1.60;;;12.40;85.70;;;;;;5065573;28;20029;-68
2021/05/22 01:54:02;;;;;;;4.88;1.92;;;12.40;86.10;;;;;;5066036;28;20016;-67
2021/05/22 01:56:28;;;;;;;4.50;1.70;;;12.30;85.60;;;;;;5066043;28;20032;-68
2021/05/22 01:58:53;;;;;;;;;;;12.40;86.00;;;;;;5065592;28;20028;-69
2021/05/22 02:01:20;;;;;;;3.72;2.05;;;12.30;86.00;;;;;;5065851;28;20352;-68
2021/05/22 02:03:50;;;;;;;2.08;1.63;;;12.30;86.20;;;;;;5065327;28;20477;-68
2021/05/22 02:06:19;;;;;;;6.38;2.30;;;12.30;85.90;;;;;;5065810;28;20055;-69
2021/05/22 02:08:47;;;;;;;3.35;1.55;;;12.20;86.00;;;;;;5065356;28;20033;-68
2021/05/22 02:11:13;;;;;;;2.95;1.63;;;12.20;86.50;;;;;;5066153;28;20440;-69
2021/05/22 02:13:41;;;;;;;2.45;1.50;;;12.20;86.10;;;;;;5064706;28;20477;-66
2021/05/22 02:16:09;;;;;;;3.70;1.83;;;12.20;86.30;;;;;;5066032;28;20063;-68
2021/05/22 02:18:36;;;;;;;4.93;1.90;;;12.20;86.20;;;;;;5065456;28;20028;-67
2021/05/22 02:21:04;;;;;;;2.88;1.55;;;12.10;86.00;;;;;;5065827;28;20032;-68
2021/05/22 02:23:33;;;;;;;4.97;2.47;;;12.10;86.50;;;;;;5065813;28;20028;-68
2021/05/22 02:25:59;;;;;;;3.50;1.73;;;12.10;86.00;;;;;;5065370;28;20032;-70
2021/05/22 02:28:29;;;;;;;6.80;1.40;;;12.10;87.00;;;;;;5065415;28;20029;-69
2021/05/22 02:30:55;;;;;;;4.07;2.30;;;12.10;87.20;;;;;;5065634;28;20603;-69
2021/05/22 02:33:22;;;;;;;4.78;2.13;;;12.10;87.20;;;;;;5065688;28;20115;-68
2021/05/22 02:35:51;;;;;;;3.22;2.08;;;12.00;87.50;;;;;;5065824;28;20132;-68
2021/05/22 02:38:24;;;;;;;3.92;2.20;;;12.00;87.80;;;;;;5065974;28;20027;-67
2021/05/22 02:40:54;;;;;;;3.40;1.98;;;12.00;86.90;;;;;;5069228;28;20489;-69
2021/05/22 02:43:20;;;;;;;5.28;1.88;;;12.00;87.40;;;;;;5068476;28;20032;-69
2021/05/22 02:45:48;;;;;;;4.05;2.38;;;12.00;87.30;;;;;;5068871;28;20054;-68
2021/05/22 02:48:18;;;;;;;3.03;1.90;;;12.00;87.10;;;;;;5069129;28;20127;-68
2021/05/22 02:50:47;;;;;;;4.38;2.28;;;12.10;87.00;;;;;;5068610;28;20108;-69
2021/05/22 02:53:14;;;;;;;4.85;2.00;;;12.10;86.80;;;;;;5069599;28;20029;-68
2021/05/22 02:55:40;;;;;;;3.38;2.10;;;12.10;86.80;;;;;;5067558;28;20029;-68
2021/05/22 02:58:05;;;;;;;;;;;12.10;86.90;;;;;;5068854;28;20047;-69
2021/05/22 03:00:33;;;;;;;5.15;2.42;;;12.00;87.10;;;;;;5068841;28;19951;-68
2021/05/22 03:02:59;;;;;;;3.63;2.10;;;12.00;87.50;;;;;;5068891;28;20025;-68
2021/05/22 03:05:26;;;;;;;14.38;2.20;;;12.10;86.90;;;;;;5068723;28;20072;-68
2021/05/22 03:07:52;;;;;;;5.15;2.45;;;12.00;87.60;;;;;;5069041;28;20029;-68
2021/05/22 03:10:17;;;;;;;;;;;12.00;87.40;;;;;;5068881;28;20020;-67
2021/05/22 03:12:43;;;;;;;5.43;2.15;;;12.00;87.50;;;;;;5068234;28;20279;-68
2021/05/22 03:15:09;;;;;;;;;;;12.00;88.00;;;;;;5067571;28;20063;-67
2021/05/22 03:17:36;;;;;;;8.88;2.42;;;12.00;88.10;;;;;;5068608;28;19909;-69
2021/05/22 03:20:03;;;;;;;5.07;2.00;;;12.00;88.70;;;;;;5068286;28;20070;-68
2021/05/22 03:22:28;;;;;;;6.55;2.20;;;11.90;88.60;;;;;;5068270;28;20054;-68
2021/05/22 03:24:54;;;;;;;;;;;12.00;88.50;;;;;;5068452;28;20028;-68
2021/05/22 03:27:19;;;;;;;3.78;2.03;;;11.90;88.60;;;;;;5068156;28;19912;-68
2021/05/22 03:29:45;;;;;;;;;;;11.90;88.70;;;;;;5068843;28;20028;-68
2021/05/22 03:32:10;;;;;;;4.70;2.00;;;12.00;88.00;;;;;;5066478;28;19946;-68
2021/05/22 03:34:36;;;;;;;;;;;12.00;87.80;;;;;;5067191;28;20024;-68
2021/05/22 03:37:02;;;;;;;3.88;2.33;;;12.00;87.60;;;;;;5066733;28;19915;-69
2021/05/22 03:39:27;;;;;;;;;;;12.10;87.70;;;;;;5068676;28;20104;-68
2021/05/22 03:41:53;;;;;;;4.07;2.35;;;12.10;88.00;;;;;;5067431;28;20377;-69
2021/05/22 03:44:18;;;;;;;;;;;12.20;86.70;;;;;;5068143;28;20108;-68
2021/05/22 03:46:44;;;;;;;7.22;2.53;;;12.30;87.40;;;;;;5067621;28;19953;-68
2021/05/22 03:49:10;;;;;;;;;;;12.30;87.20;;;;;;5066693;28;20029;-68
2021/05/22 03:51:35;;;;;;;4.57;2.53;;;12.40;87.10;;;;;;5067170;28;19912;-68
2021/05/22 03:54:01;;;;;;;;;;;12.40;86.20;;;;;;5068357;28;20021;-68
2021/05/22 03:56:26;;;;;;;7.30;3.08;;;12.50;86.30;;;;;;5067517;28;20339;-68
2021/05/22 03:58:53;;;;;;;;;;;12.60;85.90;;;;;;5068296;28;20028;-68
2021/05/22 04:01:19;;;;;;;3.92;2.30;;;12.60;85.40;;;;;;5067788;28;20476;-68
2021/05/22 04:03:45;;;;;;;;;;;12.70;85.50;;;;;;5067802;28;20539;-67
2021/05/22 04:06:10;;;;;;;11.82;4.60;;;12.80;85.20;;;;;;5067739;28;19952;-69
2021/05/22 04:08:36;;;;;;;;;;;12.90;85.50;;;;;;5067903;28;20061;-68
2021/05/22 04:11:03;;;;;;;5.38;2.85;;;13.00;85.70;;;;;;5067529;28;19954;-68
2021/05/22 04:13:29;;;;;;;5.07;2.50;;;13.10;85.20;;;;;;5067125;28;20036;-68
2021/05/22 04:15:54;;;;;;;;;;;13.20;85.10;;;;;;5068019;28;20055;-68
2021/05/22 04:18:20;;;;;;;5.88;2.88;;;13.30;85.00;;;;;;5066950;28;20719;-68
2021/05/22 04:20:45;;;;;;;;;;;13.40;81.40;;;;;;5067804;28;20036;-68
2021/05/22 04:23:11;;;;;;;7.50;3.17;;;13.40;80.80;;;;;;5067389;28;19916;-66
2021/05/22 04:25:37;;;;;;;;;;;13.50;81.10;;;;;;5067214;28;20040;-66
2021/05/22 04:28:02;;;;;;;4.45;3.00;;;13.50;81.10;;;;;;5066827;28;19915;-66
2021/05/22 04:30:28;;;;;;;;;;;13.50;82.20;;;;;;5067691;28;20035;-66
2021/05/22 04:32:54;;;;;;;5.45;2.80;;;13.60;82.20;;;;;;5066853;28;19919;-67
2021/05/22 04:35:20;;;;;;;;;;;13.50;81.70;;;;;;5067297;28;20032;-67
2021/05/22 04:37:46;;;;;;;5.15;2.70;;;13.60;82.00;;;;;;5067141;28;19998;-67
2021/05/22 04:40:12;;;;;;;5.85;2.42;;;13.60;81.90;;;;;;5066749;28;20052;-67
2021/05/22 04:42:38;;;;;;;;;;;13.60;82.00;;;;;;5066907;28;20036;-67
2021/05/22 04:45:05;;;;;;;8.95;6.22;;;13.70;82.10;;;;;;5066378;28;20752;-66
2021/05/22 04:47:31;;;;;;;13.10;6.30;;;13.80;80.80;;;;;;5066833;28;20532;-66
2021/05/22 04:49:56;;;;;;;;;;;13.90;80.60;;;;;;5067477;28;20040;-67
2021/05/22 04:52:23;;;;;;;6.03;2.67;;;13.90;80.70;;;;;;5066826;28;19904;-67
2021/05/22 04:54:50;;;;;;;5.57;2.58;;;13.90;80.30;;;;;;5066435;28;20024;-66
2021/05/22 04:57:16;;;;;;;5.65;2.63;;;14.00;80.00;;;;;;5066014;28;20052;-67
2021/05/22 04:59:42;;;;;;;3.85;2.25;;;14.10;80.10;;;;;;5065471;28;20032;-66
2021/05/22 05:02:08;;;;;;;;;;;14.10;79.90;;;;;;5066866;28;20025;-66
2021/05/22 05:04:33;;;;;;;3.28;1.67;;;14.20;79.80;;;;;;5066389;28;19956;-67
2021/05/22 05:06:59;;;;;;;;;;;14.10;80.10;;;;;;5066599;28;20111;-67
2021/05/22 05:09:25;;;;;;;3.72;1.90;;;14.20;78.60;;;;;;5066471;28;19908;-66
2021/05/22 05:11:50;;;;;;;;;;;14.30;78.10;;;;;;5066238;28;20513;-66
2021/05/22 05:14:16;;;;;;;2.88;2.10;;;14.50;76.90;;;;;;5066412;28;19904;-67
2021/05/22 05:16:42;;;;;;;;;;;14.60;76.10;;;;;;5066245;28;20053;-66
2021/05/22 05:19:07;;;;;;;5.15;1.52;;;14.70;73.40;;;;;;5066548;28;19915;-67
2021/05/22 05:21:33;;;;;;;;;;;14.80;74.10;;;;;;5066736;28;20035;-67
2021/05/22 05:23:59;;;;;;;7.68;2.80;;;14.80;74.20;;;;;;5066135;28;20365;-67
2021/05/22 05:26:24;;;;;;;;;;;15.00;75.10;;;;;;5065102;28;20048;-67
2021/05/22 05:28:50;;;;;;;6.90;2.20;;;15.30;74.60;;;;;;5066113;28;20834;-66
2021/05/22 05:31:16;;;;;;;;;;;15.40;72.30;;;;;;5066406;28;20127;-67
2021/05/22 05:33:41;;;;;;;2.67;1.70;;;15.50;73.10;;;;;;5066300;28;19911;-66
2021/05/22 05:36:07;;;;;;;;;;;15.70;73.00;;;;;;5066471;28;20039;-67
2021/05/22 05:38:32;;;;;;;4.45;2.13;;;15.90;71.00;;;;;;5066147;28;19908;-65
2021/05/22 05:40:58;;;;;;;3.83;2.13;;;15.80;69.00;;;;;;5065611;28;20032;-67
2021/05/22 05:43:24;;;;;;;2.22;1.45;;;15.80;71.00;;;;;;5066119;28;20044;-66
2021/05/22 05:45:50;;;;;;;11.68;1.95;;;15.80;71.10;;;;;;5066059;28;20032;-67
2021/05/22 05:48:16;;;;;;;4.43;2.10;;;15.80;71.60;;;;;;5064245;28;20110;-67
2021/05/22 05:50:42;;;;;;;4.32;2.13;;;15.80;71.90;;;;;;5065930;28;20040;-66
2021/05/22 05:53:07;;;;;;;;;;;15.80;71.70;;;;;;5064816;28;20481;-67
2021/05/22 05:55:33;;;;;;;3.88;2.15;;;15.70;71.00;;;;;;5065178;28;19904;-67
2021/05/22 05:57:59;;;;;;;3.53;1.70;;;15.60;71.10;;;;;;5065815;28;20127;-67
2021/05/22 06:00:24;;;;;;;;;;;15.60;70.60;;;;;;5066314;28;20028;-67
2021/05/22 06:02:51;;;;;;;4.15;1.60;;;15.70;70.60;;;;;;5065890;28;19953;-66
2021/05/22 06:05:18;;;;;;;3.97;1.88;;;15.80;70.40;;;;;;5065763;28;20091;-67
2021/05/22 06:07:44;;;;;;;9.85;1.58;;;16.00;68.60;;;;;;5065882;28;20028;-67
2021/05/22 06:10:11;;;;;;;6.40;1.63;;;16.10;68.40;;;;;;5064293;28;20020;-67
2021/05/22 06:12:37;;;;;;;2.40;1.10;;;16.30;68.10;;;;;;5064300;28;20032;-67
2021/05/22 06:15:24;;;;;;;2.75;1.40;;;16.30;68.70;;;;;;5068215;28;20032;-67
2021/05/22 06:17:53;;;;;;;4.07;1.50;;;16.50;69.30;;;;;;5069721;28;20052;-67
2021/05/22 06:20:20;;;;;;;4.97;1.70;;;16.50;68.50;;;;;;5069121;28;20884;-66
2021/05/22 06:22:46;;;;;;;3.35;1.90;;;16.50;68.20;;;;;;5069552;28;20544;-66
2021/05/22 06:25:12;;;;;;;11.98;2.28;;;16.40;68.20;;;;;;5068789;28;20127;-67
2021/05/22 06:27:38;;;;;;;6.40;2.33;;;16.40;69.30;;;;;;5069510;28;20103;-66
2021/05/22 06:30:08;;;;;;;4.45;1.92;;;16.40;69.20;;;;;;5069441;28;20025;-67
2021/05/22 06:32:35;;;;;;;5.55;2.40;;;16.20;69.50;;;;;;5068894;28;20095;-67
2021/05/22 06:35:01;;;;;;;10.80;2.60;;;16.20;70.00;;;;;;5069421;28;20097;-66
2021/05/22 06:37:27;;;;;;;10.20;3.80;;;16.20;70.50;;;;;;5068726;28;20033;-67
2021/05/22 06:39:53;;;;;;;5.53;2.13;;;16.30;69.70;;;;;;5067547;28;20692;-67
2021/05/22 06:42:19;;;;;;;2.38;1.48;;;16.40;68.50;;;;;;5069144;28;20089;-67
2021/05/22 06:45:21;;;;;;;7.93;1.52;;;16.40;68.00;;;;;;5068573;28;20051;-67
2021/05/22 06:47:36;;;;;;;4.00;1.40;;;16.40;68.30;;;;;;5067558;28;20087;-66
2021/05/22 06:50:03;;;;;;;9.43;2.45;;;16.40;67.90;;;;;;5069125;28;20051;-67
2021/05/22 06:52:28;;;;;;;4.13;1.90;;;16.40;68.10;;;;;;5067465;28;20556;-67
2021/05/22 06:54:54;;;;;;;4.32;1.63;;;16.30;68.90;;;;;;5068428;28;20021;-66
2021/05/22 06:57:20;;;;;;;5.85;1.33;;;16.20;69.50;;;;;;5067351;28;20489;-70
2021/05/22 06:59:46;;;;;;;2.30;1.20;;;16.20;69.10;;;;;;5069031;28;20456;-66
2021/05/22 07:02:12;;;;;;;3.15;1.10;;;16.10;70.00;;;;;;5068529;28;20032;-67
2021/05/22 07:04:38;;;;;;;2.30;1.13;;;16.00;71.60;;;;;;5068763;28;20542;-67
2021/05/22 07:07:05;;;;;;;5.35;1.60;;;15.90;72.50;;;;;;5068667;28;20031;-67
2021/05/22 07:09:31;;;;;;;3.28;1.85;;;15.80;73.50;;;;;;5067172;28;20861;-67
2021/05/22 07:11:57;;;;;;;2.63;1.35;;;15.70;73.90;;;;;;5068995;28;20099;-67
2021/05/22 07:14:22;;;;;;;3.80;1.65;;;15.60;75.40;;;;;;5068295;28;20102;-66
2021/05/22 07:16:48;;;;;;;3.53;1.90;;;15.60;76.00;;;;;;5068499;28;20063;-65
2021/05/22 07:19:13;;;;;;;;;;;15.60;76.70;;;;;;5068605;28;20037;-66
2021/05/22 07:21:39;;;;;;;9.20;1.98;;;15.50;78.90;;;;;;5067312;28;19954;-67
2021/05/22 07:24:05;;;;;;;5.07;2.20;;;15.60;79.10;;;;;;5067918;28;20031;-67
2021/05/22 07:26:31;;;;;;;;;;;15.60;78.60;;;;;;5068401;28;20110;-66
2021/05/22 07:28:57;;;;;;;6.35;1.50;;;15.70;79.40;;;;;;5068409;28;19961;-66
2021/05/22 07:31:22;;;;;;;;;;;15.90;79.30;;;;;;5068382;28;20339;-65
2021/05/22 07:33:50;;;;;;;4.07;1.00;;;16.00;77.40;;;;;;5068149;28;19995;-67
2021/05/22 07:36:16;;;;;;;5.97;1.60;;;16.00;77.20;;;;;;5068243;28;20032;-66
2021/05/22 07:38:42;;;;;;;9.23;5.00;;;16.00;77.50;;;;;;5067800;28;20179;-66
2021/05/22 07:41:10;;;;;;;7.70;2.78;;;15.90;77.40;;;;;;5067885;28;20028;-66
2021/05/22 07:43:36;;;;;;;3.78;1.05;;;16.00;79.00;;;;;;5067835;28;20029;-66
2021/05/22 07:46:01;;;;;;;4.07;1.23;;;16.00;77.50;;;;;;5068017;28;20394;-67
2021/05/22 07:48:27;;;;;;;4.45;2.45;;;16.10;76.20;;;;;;5067563;28;20044;-67
2021/05/22 07:50:53;;;;;;;5.15;3.42;;;16.10;77.30;;;;;;5067448;28;20534;-67
2021/05/22 07:53:19;;;;;;;;;;;16.10;77.30;;;;;;5068481;28;20042;-67
2021/05/22 07:55:45;;;;;;;2.73;1.57;;;16.10;79.50;;;;;;5067607;28;20664;-67
2021/05/22 07:58:11;;;;;;;5.50;1.45;;;16.10;78.40;;;;;;5067964;28;20021;-67
2021/05/22 08:00:37;;;;;;;5.88;0.93;;;16.10;78.60;;;;;;5067634;28;20032;-67
2021/05/22 08:03:03;;;;;;;;;;;16.10;78.20;;;;;;5068027;28;20063;-66
2021/05/22 08:05:28;;;;;;;6.43;1.35;;;16.20;78.00;;;;;;5067599;28;19916;-65
2021/05/22 08:07:54;;;;;;;2.40;0.77;;;16.20;78.40;;;;;;5067435;28;20033;-66
2021/05/22 08:10:20;;;;;;;4.30;1.67;;;16.20;77.00;;;;;;5067243;28;20044;-67
2021/05/22 08:12:46;;;;;;;6.38;1.30;;;16.30;76.70;;;;;;5067379;28;20032;-66
2021/05/22 08:15:11;;;;;;;4.03;0.77;;;16.40;76.20;;;;;;5067203;28;20016;-66
2021/05/22 08:17:37;;;;;;;1.85;0.80;;;16.50;75.70;;;;;;5066141;28;20044;-67
2021/05/22 08:20:04;;;;;;;3.00;1.00;;;16.60;75.30;;;;;;5066980;28;20040;-67
2021/05/22 08:22:30;;;;;;;5.47;1.48;;;16.90;74.10;;;;;;5066022;28;20134;-66
2021/05/22 08:24:56;;;;;;;8.65;4.25;;;17.10;72.50;;;;;;5066371;28;20044;-67
2021/05/22 08:27:22;;;;;;;7.28;2.13;;;17.30;72.50;;;;;;5066915;28;20064;-67
2021/05/22 08:29:48;;;;;;;5.72;3.20;;;17.50;70.50;;;;;;5067253;28;20086;-67
2021/05/22 08:32:14;;;;;;;30.77;24.23;;;17.40;70.60;;;;;;5067102;28;20035;-67
2021/05/22 08:34:39;;;;;;;24.80;17.65;;;17.20;72.30;;;;;;5066699;28;20020;-66
2021/05/22 08:37:06;;;;;;;9.35;5.72;;;17.10;72.10;;;;;;5065077;28;20040;-67
2021/05/22 08:39:32;;;;;;;11.10;4.50;;;17.00;73.10;;;;;;5066712;28;20021;-66
2021/05/22 08:41:58;;;;;;;9.82;7.70;;;16.90;72.70;;;;;;5065208;28;20545;-66
2021/05/22 08:44:23;;;;;;;8.82;5.45;;;16.90;71.10;;;;;;5067078;28;20059;-67
2021/05/22 08:46:49;;;;;;;6.50;3.22;;;16.70;72.90;;;;;;5066231;28;20464;-67
2021/05/22 08:49:16;;;;;;;7.82;5.15;;;16.60;73.10;;;;;;5065777;28;20389;-66
2021/05/22 08:51:43;;;;;;;8.77;4.22;;;16.60;74.00;;;;;;5066674;28;20484;-66
2021/05/22 08:54:09;;;;;;;5.45;1.73;;;16.60;74.10;;;;;;5066159;28;20020;-65
2021/05/22 08:56:34;;;;;;;10.35;6.40;;;16.60;72.20;;;;;;5066743;28;20028;-67
2021/05/22 08:59:01;;;;;;;31.48;20.88;;;16.50;71.70;;;;;;5066287;28;20077;-67
2021/05/22 09:01:26;;;;;;;13.10;6.63;;;16.50;71.80;;;;;;5066566;28;20052;-65
2021/05/22 09:03:55;;;;;;;5.50;2.50;;;16.50;72.70;;;;;;5066320;28;20061;-67
2021/05/22 09:06:21;;;;;;;3.20;1.65;;;16.60;71.50;;;;;;5066238;28;20040;-67
2021/05/22 09:09:05;;;;;;;3.47;1.45;;;16.60;71.10;;;;;;5064284;28;20031;-67
2021/05/22 09:11:52;;;;;;;4.78;1.33;;;16.50;70.90;;;;;;5066038;28;20032;-67
2021/05/22 09:14:47;;;;;;;3.40;1.45;;;16.50;71.20;;;;;;5065989;28;20089;-66
2021/05/22 09:17:13;;;;;;;2.17;1.00;;;16.40;70.90;;;;;;5062855;28;20036;-67
2021/05/22 09:19:40;;;;;;;2.95;1.35;;;16.50;71.30;;;;;;5066461;28;20554;-66
2021/05/22 09:22:19;;;;;;;4.38;1.35;;;16.40;71.00;;;;;;5066171;28;20025;-67
2021/05/22 09:24:59;;;;;;;4.65;1.35;;;16.50;70.90;;;;;;5064365;28;20484;-66
2021/05/22 09:27:33;;;;;;;4.13;0.63;;;16.60;70.80;;;;;;5066518;28;20453;-67
2021/05/22 09:30:14;;;;;;;3.33;0.57;;;16.70;70.20;;;;;;5066197;28;20035;-69
2021/05/22 09:32:41;;;;;;;84.93;54.00;;;16.80;69.30;;;;;;5066030;28;20029;-66
2021/05/22 09:35:09;;;;;;;28.80;22.60;;;17.10;68.40;;;;;;5065693;28;20042;-67
2021/05/22 09:38:01;;;;;;;5.28;4.78;;;17.30;68.00;;;;;;5066280;28;20032;-67
2021/05/22 09:40:35;;;;;;;10.93;4.93;;;17.60;66.70;;;;;;5066373;28;20040;-66
2021/05/22 09:43:07;;;;;;;25.50;23.08;;;17.90;65.30;;;;;;5066056;28;20489;-66
2021/05/22 09:45:44;;;;;;;8.95;8.18;;;18.30;63.70;;;;;;5065660;28;20037;-67
2021/05/22 09:48:23;;;;;;;3.53;2.95;;;18.50;61.40;;;;;;5068274;28;20044;-67
2021/05/22 09:50:49;;;;;;;2.90;1.45;;;18.60;60.30;;;;;;5069702;28;20020;-67
2021/05/22 09:53:36;;;;;;;5.15;0.40;;;18.60;57.60;;;;;;5069623;28;20032;-66
2021/05/22 09:56:08;;;;;;;4.97;0.30;;;18.70;57.30;;;;;;5069909;28;20424;-69
2021/05/22 09:58:35;;;;;;;4.95;1.00;;;18.60;57.90;;;;;;5069671;28;20016;-67
2021/05/22 10:01:01;;;;;;;1.35;0.45;;;18.50;59.30;;;;;;5070379;28;20064;-67
2021/05/22 10:03:27;;;;;;;1.55;0.45;;;18.50;59.10;;;;;;5070049;28;20016;-66
2021/05/22 10:05:53;;;;;;;1.67;0.50;;;18.70;58.70;;;;;;5069857;28;20512;-67
2021/05/22 10:08:19;;;;;;;4.18;0.30;;;19.10;58.50;;;;;;5068209;28;20029;-66
2021/05/22 10:10:54;;;;;;;2.50;0.40;;;19.40;56.60;;;;;;5068321;28;20527;-66
2021/05/22 10:13:20;;;;;;;3.58;0.47;;;20.00;55.30;;;;;;5068490;28;20454;-67
2021/05/22 10:15:50;;;;;;;6.80;0.60;;;20.40;53.60;;;;;;5069873;28;20404;-66
2021/05/22 10:18:17;;;;;;;3.47;0.98;;;20.50;51.80;;;;;;5069427;28;20029;-66
2021/05/22 10:20:43;;;;;;;0.95;0.30;;;20.60;50.60;;;;;;5069238;28;20087;-66
2021/05/22 10:23:10;;;;;;;6.40;0.50;;;20.30;50.70;;;;;;5068822;28;20064;-67
2021/05/22 10:25:37;;;;;;;1.13;0.30;;;20.00;50.60;;;;;;5069498;28;20043;-67
2021/05/22 10:28:04;;;;;;;3.50;0.75;;;19.70;49.60;;;;;;5069439;28;20013;-67
2021/05/22 10:30:30;;;;;;;12.43;1.48;;;19.30;50.80;;;;;;5069444;28;20033;-66
2021/05/22 10:33:04;;;;;;;3.28;0.40;;;19.00;52.00;;;;;;5069334;28;20063;-67
2021/05/22 10:35:47;;;;;;;1.50;0.43;;;18.60;53.60;;;;;;5069493;28;20025;-67
2021/05/22 10:38:31;;;;;;;2.00;0.50;;;18.30;56.20;;;;;;5068794;28;20024;-66
2021/05/22 10:40:58;;;;;;;6.53;0.80;;;18.10;57.00;;;;;;5069416;28;20035;-66
2021/05/22 10:43:53;;;;;;;5.40;0.30;;;18.10;57.10;;;;;;5069287;28;20520;-67
2021/05/22 10:46:21;;;;;;;3.40;0.43;;;18.10;55.80;;;;;;5067608;28;20059;-67
2021/05/22 10:48:57;;;;;;;1.25;0.40;;;17.90;56.20;;;;;;5069061;28;20134;-67
2021/05/22 10:51:25;;;;;;;4.28;0.85;;;17.80;56.90;;;;;;5068673;28;20025;-66
2021/05/22 10:53:56;;;;;;;2.35;0.63;;;17.70;57.20;;;;;;5068637;28;20040;-67
2021/05/22 10:56:22;;;;;;;4.00;0.73;;;17.60;58.60;;;;;;5067340;28;20032;-67
2021/05/22 10:58:57;;;;;;;7.07;3.22;;;17.60;59.90;;;;;;5068175;28;20468;-67
2021/05/22 11:01:26;;;;;;;9.25;5.25;;;17.60;59.30;;;;;;5069036;28;20028;-66
2021/05/22 11:04:11;;;;;;;3.63;0.40;;;17.50;60.50;;;;;;5068319;28;20032;-66
2021/05/22 11:06:43;;;;;;;1.38;0.35;;;17.30;61.40;;;;;;5068606;28;20211;-67
2021/05/22 11:09:27;;;;;;;4.80;1.00;;;17.20;61.20;;;;;;5068527;28;20404;-67
2021/05/22 11:11:57;;;;;;;1.58;0.55;;;17.10;62.00;;;;;;5067206;28;20043;-66
2021/05/22 11:14:42;;;;;;;2.47;0.60;;;17.00;62.80;;;;;;5068494;28;20436;-67
2021/05/22 11:17:26;;;;;;;3.40;0.70;;;16.90;63.30;;;;;;5067433;28;20039;-67
2021/05/22 11:20:01;;;;;;;7.13;0.50;;;16.90;63.10;;;;;;5067413;28;20016;-69
2021/05/22 11:22:53;;;;;;;2.00;0.40;;;16.70;63.80;;;;;;5067857;28;20544;-70
2021/05/22 11:25:19;;;;;;;3.92;0.70;;;16.60;64.90;;;;;;5062783;28;20542;-67
2021/05/22 11:27:46;;;;;;;0.82;0.30;;;16.50;66.60;;;;;;5068559;28;20032;-67
2021/05/22 11:30:37;;;;;;;6.25;1.25;;;16.30;68.50;;;;;;5068011;28;20021;-67
2021/05/22 11:33:10;;;;;;;4.10;1.52;;;16.30;70.30;;;;;;5062711;28;20048;-68
2021/05/22 11:35:41;;;;;;;1.08;0.35;;;16.10;71.90;;;;;;5067977;28;20032;-68
2021/05/22 11:38:13;;;;;;;18.60;9.75;;;16.10;70.10;;;;;;5067917;28;20455;-67
2021/05/22 11:40:38;;;;;;;8.55;3.70;;;15.90;71.20;;;;;;5067660;28;20409;-68
2021/05/22 11:43:18;;;;;;;3.65;2.65;;;15.80;72.80;;;;;;5068231;28;20521;-68
2021/05/22 11:45:48;;;;;;;2.65;0.60;;;15.70;71.30;;;;;;5068119;28;20035;-68
2021/05/22 11:48:32;;;;;;;2.28;0.70;;;15.60;71.30;;;;;;5067862;28;20056;-67
2021/05/22 11:50:57;;;;;;;8.63;0.75;;;15.50;72.60;;;;;;5067768;28;20032;-67
2021/05/22 11:53:27;;;;;;;;;;;15.40;72.60;;;;;;5067976;28;20409;-67
2021/05/22 11:56:00;;;;;;;3.83;0.80;;;15.30;74.30;;;;;;5066706;28;19904;-67
2021/05/22 11:58:26;;;;;;;4.25;0.80;;;15.20;74.70;;;;;;5067396;28;20401;-68
2021/05/22 12:00:53;;;;;;;5.47;0.90;;;15.20;75.20;;;;;;5067418;28;20106;-68
2021/05/22 12:03:28;;;;;;;2.38;0.50;;;15.20;75.10;;;;;;5067870;28;20064;-67
2021/05/22 12:05:55;;;;;;;3.58;0.60;;;15.20;75.60;;;;;;5067525;28;20416;-67
2021/05/22 12:08:24;;;;;;;6.00;0.60;;;15.20;75.60;;;;;;5067047;28;20024;-67
2021/05/22 12:10:50;;;;;;;3.13;0.52;;;15.30;76.30;;;;;;5066406;28;20016;-67
2021/05/22 12:13:17;;;;;;;2.45;0.60;;;15.30;76.90;;;;;;5067421;28;20178;-67
2021/05/22 12:15:44;;;;;;;2.30;0.63;;;15.30;77.60;;;;;;5067238;28;20029;-66
2021/05/22 12:18:13;;;;;;;3.50;1.25;;;15.30;79.40;;;;;;5067625;28;20109;-69
2021/05/22 12:20:55;;;;;;;7.43;0.70;;;15.30;80.30;;;;;;5067343;28;20020;-67
2021/05/22 12:23:29;;;;;;;5.10;1.00;;;15.30;81.10;;;;;;5066979;28;20032;-67
2021/05/22 12:25:56;;;;;;;3.45;0.93;;;15.30;81.70;;;;;;5067326;28;20059;-71
2021/05/22 12:28:23;;;;;;;3.67;0.90;;;15.20;82.00;;;;;;5067321;28;20054;-67
2021/05/22 12:30:52;;;;;;;3.10;0.80;;;15.20;81.80;;;;;;5066874;28;20126;-67
2021/05/22 12:33:18;;;;;;;1.52;0.60;;;15.20;81.70;;;;;;5067330;28;20028;-67
2021/05/22 12:35:46;;;;;;;;;;;15.20;81.60;;;;;;5067214;28;20082;-67
2021/05/22 12:38:13;;;;;;;2.97;0.77;;;15.30;82.00;;;;;;5065277;28;19908;-67
2021/05/22 12:40:46;;;;;;;2.55;0.80;;;15.40;82.30;;;;;;5066960;28;20540;-67
2021/05/22 12:43:12;;;;;;;3.80;0.75;;;15.40;81.80;;;;;;5066851;28;20051;-68
2021/05/22 12:45:42;;;;;;;;;;;15.50;81.70;;;;;;5067409;28;20024;-67
2021/05/22 12:48:20;;;;;;;6.80;1.92;;;15.60;81.80;;;;;;5066111;28;19970;-67
2021/05/22 12:50:46;;;;;;;8.10;0.82;;;15.80;81.60;;;;;;5066108;28;20036;-68
2021/05/22 12:53:11;;;;;;;1.77;0.77;;;15.80;81.10;;;;;;5066711;28;20206;-68
2021/05/22 12:55:38;;;;;;;2.10;0.77;;;15.90;81.00;;;;;;5066336;28;20124;-68
2021/05/22 12:58:22;;;;;;;5.38;0.90;;;16.10;80.70;;;;;;5066786;28;20028;-68
2021/05/22 13:00:51;;;;;;;1.63;0.63;;;16.10;79.80;;;;;;5066466;28;20028;-68
2021/05/22 13:03:37;;;;;;;2.05;0.60;;;16.20;79.90;;;;;;5066583;28;20032;-67
2021/05/22 13:06:03;;;;;;;3.08;0.80;;;16.20;79.50;;;;;;5066087;28;20559;-68
2021/05/22 13:08:29;;;;;;;3.55;0.68;;;16.20;79.90;;;;;;5066308;28;20031;-69